createdAt,value
2022-09-18T00:01:42.697Z,8.90
2022-09-18T00:04:17.050Z,9.04
2022-09-18T00:06:46.275Z,9.15
2022-09-18T00:09:16.309Z,9.28
2022-09-18T00:11:47.545Z,9.45
2022-09-18T00:14:20.050Z,9.67
2022-09-18T00:16:49.349Z,9.97
2022-09-18T00:19:18.684Z,10.28
2022-09-18T00:21:50.575Z,10.62
2022-09-18T00:24:20.545Z,10.82
2022-09-18T00:26:49.769Z,10.95
2022-09-18T00:29:19.095Z,11.10
2022-09-18T00:31:48.289Z,11.20
2022-09-18T00:34:17.664Z,11.48
2022-09-18T00:36:46.525Z,11.75
2022-09-18T00:39:15.294Z,12.03
2022-09-18T00:41:45.447Z,12.23
2022-09-18T00:44:40.258Z,12.51
2022-09-18T00:47:18.608Z,13.43
2022-09-18T00:50:02.796Z,14.75
2022-09-18T00:52:45.008Z,15.95
2022-09-18T00:55:15.060Z,17.00
2022-09-18T00:57:50.165Z,17.99
2022-09-18T01:00:20.025Z,18.83
2022-09-18T01:02:49.337Z,19.61
2022-09-18T01:05:30.728Z,20.47
2022-09-18T01:08:12.785Z,21.19
2022-09-18T01:11:04.330Z,21.91
2022-09-18T01:13:56.559Z,22.08
2022-09-18T01:16:31.522Z,21.21
2022-09-18T01:19:43.915Z,20.12
2022-09-18T01:22:31.851Z,20.16
2022-09-18T01:25:23.902Z,21.28
2022-09-18T01:28:11.410Z,22.29
2022-09-18T01:30:44.053Z,23.07
2022-09-18T01:33:57.584Z,23.85
2022-09-18T01:36:30.195Z,24.50
2022-09-18T01:39:19.644Z,24.92
2022-09-18T01:41:51.990Z,25.20
2022-09-18T01:44:29.343Z,25.63
2022-09-18T01:47:05.082Z,26.29
2022-09-18T01:49:46.508Z,26.73
2022-09-18T01:52:39.158Z,27.20
2022-09-18T01:55:14.355Z,27.42
2022-09-18T01:57:49.892Z,27.72
2022-09-18T02:00:21.264Z,27.88
2022-09-18T02:02:52.452Z,28.33
2022-09-18T02:05:30.694Z,28.81
2022-09-18T02:08:21.184Z,29.08
2022-09-18T02:11:10.154Z,29.25
2022-09-18T02:13:54.042Z,29.40
2022-09-18T02:16:53.447Z,29.75
2022-09-18T02:19:45.245Z,29.77
2022-09-18T02:22:18.967Z,30.00
2022-09-18T02:24:50.599Z,30.25
2022-09-18T02:27:22.034Z,30.60
2022-09-18T02:29:51.883Z,30.92
2022-09-18T02:32:20.878Z,31.42
2022-09-18T02:34:49.802Z,31.59
2022-09-18T02:37:32.538Z,31.47
2022-09-18T02:40:10.700Z,31.57
2022-09-18T02:43:25.799Z,31.95
2022-09-18T02:46:09.610Z,31.97
2022-09-18T02:49:04.892Z,32.23
2022-09-18T02:51:59.384Z,32.60
2022-09-18T02:54:42.514Z,32.63
2022-09-18T02:57:18.722Z,32.81
2022-09-18T02:59:52.343Z,33.01
2022-09-18T03:02:26.563Z,33.10
2022-09-18T03:04:55.928Z,33.20
2022-09-18T03:07:33.765Z,33.12
2022-09-18T03:10:04.365Z,32.99
2022-09-18T03:12:33.222Z,33.12
2022-09-18T03:15:01.981Z,33.62
2022-09-18T03:17:31.318Z,33.88
2022-09-18T03:20:00.085Z,34.26
2022-09-18T03:22:31.509Z,34.35
2022-09-18T03:25:00.359Z,34.44
2022-09-18T03:27:29.148Z,34.71
2022-09-18T03:29:58.068Z,34.76
2022-09-18T03:32:26.895Z,34.86
2022-09-18T03:34:56.687Z,35.27
2022-09-18T03:37:25.442Z,35.34
2022-09-18T03:39:55.006Z,35.21
2022-09-18T03:42:23.865Z,35.26
2022-09-18T03:44:52.904Z,32.93
2022-09-18T03:47:31.798Z,32.27
2022-09-18T03:50:03.149Z,32.68
2022-09-18T03:52:35.107Z,32.13
2022-09-18T03:55:13.273Z,30.01
2022-09-18T03:58:02.374Z,29.38
2022-09-18T04:00:47.406Z,30.28
2022-09-18T04:03:25.547Z,31.57
2022-09-18T04:06:12.718Z,33.19
2022-09-18T04:08:59.962Z,34.14
2022-09-18T04:11:38.720Z,34.95
2022-09-18T04:14:07.474Z,35.39
2022-09-18T04:16:36.201Z,35.39
2022-09-18T04:19:04.967Z,34.78
2022-09-18T04:21:33.732Z,35.28
2022-09-18T04:24:02.673Z,33.44
2022-09-18T04:26:31.842Z,30.28
2022-09-18T04:29:03.404Z,27.55
2022-09-18T04:31:32.950Z,25.50
2022-09-18T04:34:06.652Z,23.94
2022-09-18T04:36:37.302Z,22.75
2022-09-18T04:39:09.460Z,21.83
2022-09-18T04:41:38.146Z,20.93
2022-09-18T04:44:07.941Z,20.43
2022-09-18T04:46:36.787Z,20.23
2022-09-18T04:49:05.582Z,20.49
2022-09-18T04:51:34.561Z,20.78
2022-09-18T04:54:03.357Z,20.85
2022-09-18T04:56:35.622Z,20.80
2022-09-18T04:59:04.611Z,20.89
2022-09-18T05:01:36.677Z,21.07
2022-09-18T05:04:11.623Z,22.22
2022-09-18T05:06:49.797Z,22.44
2022-09-18T05:09:19.232Z,22.41
2022-09-18T05:11:48.814Z,22.60
2022-09-18T05:14:18.610Z,23.17
2022-09-18T05:16:51.243Z,24.23
2022-09-18T05:19:29.291Z,25.62
2022-09-18T05:22:05.269Z,25.88
2022-09-18T05:24:37.321Z,24.90
2022-09-18T05:27:08.378Z,23.83
2022-09-18T05:29:38.425Z,22.75
2022-09-18T05:32:20.921Z,21.84
2022-09-18T05:34:50.706Z,21.21
2022-09-18T05:37:20.265Z,20.79
2022-09-18T05:39:53.924Z,20.46
2022-09-18T05:42:22.757Z,20.40
2022-09-18T05:44:51.614Z,20.57
2022-09-18T05:47:25.049Z,20.82
2022-09-18T05:49:55.687Z,21.22
2022-09-18T05:52:26.205Z,21.84
2022-09-18T05:54:55.190Z,22.38
2022-09-18T05:57:23.952Z,22.73
2022-09-18T05:59:52.593Z,23.22
2022-09-18T06:02:22.156Z,24.90
2022-09-18T06:05:13.925Z,28.37
2022-09-18T06:07:42.650Z,30.31
2022-09-18T06:10:11.380Z,30.43
2022-09-18T06:12:40.329Z,30.89
2022-09-18T06:15:10.199Z,31.89
2022-09-18T06:17:39.171Z,31.84
2022-09-18T06:20:09.637Z,28.44
2022-09-18T06:22:38.402Z,24.73
2022-09-18T06:25:12.066Z,21.74
2022-09-18T06:27:41.019Z,20.08
2022-09-18T06:30:10.212Z,19.03
2022-09-18T06:32:38.950Z,18.25
2022-09-18T06:35:08.503Z,17.53
2022-09-18T06:37:37.558Z,16.74
2022-09-18T06:40:33.087Z,15.97
2022-09-18T06:43:16.068Z,15.46
2022-09-18T06:46:05.060Z,14.92
2022-09-18T06:48:40.720Z,14.46
2022-09-18T06:51:10.369Z,14.10
2022-09-18T06:54:10.941Z,13.81
2022-09-18T06:56:40.286Z,13.75
2022-09-18T06:59:11.582Z,13.72
2022-09-18T07:01:42.060Z,13.67
2022-09-18T07:04:28.126Z,13.63
2022-09-18T07:06:58.966Z,13.62
2022-09-18T07:09:29.381Z,13.73
2022-09-18T07:12:04.722Z,14.00
2022-09-18T07:14:47.554Z,14.43
2022-09-18T07:17:19.137Z,14.84
2022-09-18T07:19:52.662Z,15.24
2022-09-18T07:22:25.066Z,15.49
2022-09-18T07:24:54.367Z,15.76
2022-09-18T07:27:24.132Z,15.84
2022-09-18T07:29:53.747Z,15.88
2022-09-18T07:32:22.979Z,15.80
2022-09-18T07:34:52.068Z,15.66
2022-09-18T07:37:26.687Z,15.41
2022-09-18T07:40:13.153Z,15.27
2022-09-18T07:43:08.421Z,15.19
2022-09-18T07:45:39.739Z,15.03
2022-09-18T07:48:08.721Z,14.97
2022-09-18T07:50:43.781Z,14.95
2022-09-18T07:53:13.029Z,14.88
2022-09-18T07:55:45.882Z,14.91
2022-09-18T07:58:15.566Z,14.86
2022-09-18T08:01:04.040Z,14.86
2022-09-18T08:03:39.161Z,14.80
2022-09-18T08:06:09.856Z,14.82
2022-09-18T08:08:41.640Z,14.72
2022-09-18T08:11:36.460Z,14.64
2022-09-18T08:14:11.202Z,14.61
2022-09-18T08:16:43.663Z,14.67
2022-09-18T08:19:27.318Z,14.74
2022-09-18T08:22:10.110Z,14.75
2022-09-18T08:24:44.697Z,14.81
2022-09-18T08:27:13.423Z,14.91
2022-09-18T08:29:42.883Z,15.12
2022-09-18T08:32:12.802Z,15.25
2022-09-18T08:34:41.589Z,15.42
2022-09-18T08:37:12.583Z,15.57
2022-09-18T08:39:59.596Z,15.67
2022-09-18T08:43:04.431Z,15.72
2022-09-18T08:45:48.059Z,15.81
2022-09-18T08:48:21.943Z,15.91
2022-09-18T08:51:02.399Z,15.89
2022-09-18T08:53:45.765Z,15.78
2022-09-18T08:56:39.674Z,15.85
2022-09-18T08:59:40.387Z,15.74
2022-09-18T09:02:32.858Z,15.59
2022-09-18T09:05:07.698Z,15.51
2022-09-18T09:07:46.647Z,15.45
2022-09-18T09:10:42.959Z,15.38
2022-09-18T09:13:30.121Z,15.38
2022-09-18T09:16:10.708Z,15.33
2022-09-18T09:19:01.411Z,15.25
2022-09-18T09:21:54.154Z,15.22
2022-09-18T09:24:36.258Z,15.15
2022-09-18T09:27:33.941Z,15.09
2022-09-18T09:30:20.562Z,15.02
2022-09-18T09:33:24.759Z,15.05
2022-09-18T09:36:21.959Z,15.05
2022-09-18T09:38:51.657Z,15.11
2022-09-18T09:41:28.603Z,15.06
2022-09-18T09:44:15.778Z,15.06
2022-09-18T09:47:17.776Z,14.95
2022-09-18T09:50:01.162Z,14.87
2022-09-18T09:52:32.398Z,14.91
2022-09-18T09:55:20.036Z,15.13
2022-09-18T09:58:21.521Z,15.30
2022-09-18T10:00:57.830Z,15.37
2022-09-18T10:03:26.854Z,15.38
2022-09-18T10:06:12.214Z,15.19
2022-09-18T10:08:47.051Z,14.86
2022-09-18T10:11:18.096Z,14.51
2022-09-18T10:14:17.942Z,14.17
2022-09-18T10:16:50.534Z,13.85
2022-09-18T10:19:22.048Z,13.61
2022-09-18T10:21:53.959Z,13.33
2022-09-18T10:24:54.487Z,13.18
2022-09-18T10:27:23.979Z,13.16
2022-09-18T10:29:54.938Z,13.11
2022-09-18T10:32:44.558Z,13.04
2022-09-18T10:35:37.429Z,12.78
2022-09-18T10:38:30.991Z,12.61
2022-09-18T10:41:35.221Z,12.41
2022-09-18T10:44:13.371Z,12.20
2022-09-18T10:46:57.638Z,12.01
2022-09-18T10:49:38.390Z,11.89
2022-09-18T10:52:25.829Z,11.75
2022-09-18T10:55:07.777Z,11.70
2022-09-18T10:57:42.041Z,11.64
2022-09-18T11:00:20.683Z,11.62
2022-09-18T11:03:20.000Z,11.61
2022-09-18T11:06:24.519Z,11.63
2022-09-18T11:09:02.263Z,11.64
2022-09-18T11:11:36.762Z,11.75
2022-09-18T11:14:31.856Z,11.79
2022-09-18T11:17:05.441Z,11.83
2022-09-18T11:19:41.260Z,11.88
2022-09-18T11:22:44.175Z,11.89
2022-09-18T11:25:31.893Z,11.88
2022-09-18T11:28:33.670Z,11.87
2022-09-18T11:31:19.179Z,11.85
2022-09-18T11:33:57.522Z,11.87
2022-09-18T11:36:34.050Z,11.84
2022-09-18T11:39:15.901Z,11.80
2022-09-18T11:41:51.132Z,11.75
2022-09-18T11:44:25.219Z,11.77
2022-09-18T11:47:37.180Z,11.77
2022-09-18T11:50:18.290Z,11.80
2022-09-18T11:52:55.051Z,11.80
2022-09-18T11:56:21.661Z,11.83
2022-09-18T11:59:01.307Z,11.84
2022-09-18T12:01:51.120Z,11.79
2022-09-18T12:04:44.913Z,11.81
2022-09-18T12:07:41.194Z,11.80
2022-09-18T12:10:21.700Z,11.74
2022-09-18T12:13:06.005Z,11.67
2022-09-18T12:15:38.578Z,11.72
2022-09-18T12:18:20.617Z,11.75
2022-09-18T12:20:57.677Z,11.67
2022-09-18T12:23:27.744Z,11.64
2022-09-18T12:26:23.481Z,11.57
2022-09-18T12:29:02.756Z,11.52
2022-09-18T12:31:35.810Z,11.47
2022-09-18T12:34:16.502Z,11.43
2022-09-18T12:37:06.424Z,11.37
2022-09-18T12:40:05.327Z,11.26
2022-09-18T12:42:34.107Z,11.18
2022-09-18T12:45:09.193Z,11.11
2022-09-18T12:47:55.741Z,11.07
2022-09-18T12:51:10.635Z,11.08
2022-09-18T12:53:57.106Z,11.04
2022-09-18T12:56:43.866Z,10.92
2022-09-18T12:59:30.510Z,10.92
2022-09-18T13:02:03.940Z,10.92
2022-09-18T13:04:47.455Z,10.90
2022-09-18T13:07:39.748Z,10.88
2022-09-18T13:10:38.670Z,10.88
2022-09-18T13:13:32.801Z,10.76
2022-09-18T13:16:12.172Z,10.76
2022-09-18T13:19:06.025Z,10.71
2022-09-18T13:21:42.379Z,10.66
2022-09-18T13:24:30.322Z,10.60
2022-09-18T13:27:00.710Z,10.48
2022-09-18T13:29:49.648Z,10.47
2022-09-18T13:32:26.641Z,10.42
2022-09-18T13:34:56.622Z,10.38
2022-09-18T13:37:27.638Z,10.29
2022-09-18T13:40:10.987Z,10.18
2022-09-18T13:42:43.445Z,10.18
2022-09-18T13:45:22.158Z,10.13
2022-09-18T13:48:20.951Z,10.12
2022-09-18T13:50:59.918Z,10.01
2022-09-18T13:53:34.665Z,9.92
2022-09-18T13:56:04.299Z,9.91
2022-09-18T13:58:35.596Z,9.89
2022-09-18T14:01:10.637Z,9.87
2022-09-18T14:03:43.101Z,9.82
2022-09-18T14:06:36.856Z,9.82
2022-09-18T14:09:45.961Z,9.77
2022-09-18T14:12:18.235Z,9.71
2022-09-18T14:15:03.275Z,9.64
2022-09-18T14:17:35.203Z,9.57
2022-09-18T14:20:18.925Z,9.53
2022-09-18T14:22:47.725Z,9.46
2022-09-18T14:25:45.141Z,9.39
2022-09-18T14:28:15.180Z,9.34
2022-09-18T14:30:43.999Z,9.29
2022-09-18T14:33:17.349Z,9.20
2022-09-18T14:35:48.670Z,9.12
2022-09-18T14:38:36.987Z,9.10
2022-09-18T14:41:26.771Z,9.03
2022-09-18T14:44:03.375Z,8.97
2022-09-18T14:46:33.532Z,8.89
2022-09-18T14:49:03.576Z,8.79
2022-09-18T14:51:44.883Z,8.82
2022-09-18T14:54:25.085Z,8.90
2022-09-18T14:57:00.194Z,8.94
2022-09-18T14:59:29.989Z,8.96
2022-09-18T15:02:23.833Z,8.94
2022-09-18T15:04:52.941Z,8.88
2022-09-18T15:07:23.881Z,8.75
2022-09-18T15:09:55.598Z,8.68
2022-09-18T15:12:26.819Z,8.53
2022-09-18T15:14:55.536Z,8.43
2022-09-18T15:17:29.196Z,8.48
2022-09-18T15:20:16.856Z,8.48
2022-09-18T15:22:45.543Z,8.53
2022-09-18T15:25:20.297Z,8.51
2022-09-18T15:27:50.538Z,8.48
2022-09-18T15:30:22.397Z,8.39
2022-09-18T15:33:21.677Z,8.33
2022-09-18T15:35:53.723Z,8.32
2022-09-18T15:38:30.390Z,8.23
2022-09-18T15:40:59.526Z,8.27
2022-09-18T15:43:31.246Z,8.32
2022-09-18T15:46:24.732Z,8.33
2022-09-18T15:48:57.231Z,8.39
2022-09-18T15:51:36.588Z,8.42
2022-09-18T15:54:23.612Z,8.43
2022-09-18T15:56:53.987Z,8.39
2022-09-18T15:59:28.715Z,8.35
2022-09-18T16:02:00.215Z,8.34
2022-09-18T16:04:34.303Z,8.28
2022-09-18T16:07:16.956Z,8.22
2022-09-18T16:09:48.593Z,8.13
2022-09-18T16:12:39.007Z,8.01
2022-09-18T16:15:20.952Z,7.91
2022-09-18T16:17:49.867Z,7.87
2022-09-18T16:20:29.626Z,7.82
2022-09-18T16:23:03.924Z,7.76
2022-09-18T16:25:36.541Z,7.76
2022-09-18T16:28:20.586Z,7.71
2022-09-18T16:30:49.526Z,7.68
2022-09-18T16:33:21.217Z,7.66
2022-09-18T16:36:16.237Z,7.61
2022-09-18T16:38:44.904Z,7.54
2022-09-18T16:41:13.698Z,7.50
2022-09-18T16:43:42.737Z,7.48
2022-09-18T16:46:13.385Z,7.40
2022-09-18T16:48:42.535Z,7.34
2022-09-18T16:51:11.285Z,7.38
2022-09-18T16:53:40.161Z,7.34
2022-09-18T16:56:15.141Z,7.39
2022-09-18T16:58:45.023Z,7.37
2022-09-18T17:01:15.217Z,7.34
2022-09-18T17:03:44.038Z,7.37
2022-09-18T17:06:15.020Z,7.41
2022-09-18T17:08:47.183Z,7.35
2022-09-18T17:11:15.866Z,7.35
2022-09-18T17:13:44.658Z,7.37
2022-09-18T17:16:26.088Z,7.42
2022-09-18T17:19:02.123Z,7.42
2022-09-18T17:21:30.767Z,7.47
2022-09-18T17:24:02.609Z,7.51
2022-09-18T17:26:31.577Z,7.48
2022-09-18T17:29:00.214Z,7.50
2022-09-18T17:31:29.038Z,7.48
2022-09-18T17:33:58.313Z,7.51
2022-09-18T17:36:27.120Z,7.47
2022-09-18T17:38:58.439Z,7.47
2022-09-18T17:41:29.266Z,7.49
2022-09-18T17:43:57.990Z,7.57
2022-09-18T17:46:26.932Z,7.57
2022-09-18T17:48:57.221Z,7.51
2022-09-18T17:51:28.851Z,7.53
2022-09-18T17:54:00.625Z,7.52
2022-09-18T17:56:33.148Z,7.54
2022-09-18T17:59:06.231Z,7.56
2022-09-18T18:01:38.837Z,7.57
2022-09-18T18:04:08.327Z,7.57
2022-09-18T18:06:37.915Z,7.52
2022-09-18T18:09:10.375Z,7.49
2022-09-18T18:11:39.265Z,7.49
2022-09-18T18:14:08.141Z,7.49
2022-09-18T18:16:38.250Z,7.61
2022-09-18T18:19:12.436Z,7.66
2022-09-18T18:21:43.082Z,7.66
2022-09-18T18:24:16.943Z,7.63
2022-09-18T18:26:47.201Z,7.54
2022-09-18T18:29:18.295Z,7.43
2022-09-18T18:31:49.792Z,7.41
2022-09-18T18:34:21.643Z,7.42
2022-09-18T18:36:51.194Z,7.41
2022-09-18T18:39:20.587Z,7.43
2022-09-18T18:41:50.359Z,7.34
2022-09-18T18:44:19.099Z,7.27
2022-09-18T18:46:48.742Z,7.29
2022-09-18T18:49:17.816Z,7.34
2022-09-18T18:51:48.605Z,7.36
2022-09-18T18:54:20.102Z,7.39
2022-09-18T18:56:49.755Z,7.33
2022-09-18T18:59:20.108Z,7.27
2022-09-18T19:01:49.978Z,7.24
2022-09-18T19:04:19.775Z,7.21
2022-09-18T19:06:51.926Z,7.22
2022-09-18T19:09:23.300Z,7.27
2022-09-18T19:11:53.383Z,7.33
2022-09-18T19:14:25.768Z,7.39
2022-09-18T19:16:55.556Z,7.45
2022-09-18T19:19:27.248Z,7.52
2022-09-18T19:22:00.252Z,7.53
2022-09-18T19:24:30.495Z,7.46
2022-09-18T19:26:59.509Z,7.47
2022-09-18T19:29:30.662Z,7.45
2022-09-18T19:32:00.885Z,7.47
2022-09-18T19:34:29.556Z,7.48
2022-09-18T19:36:59.811Z,7.44
2022-09-18T19:39:28.528Z,7.41
2022-09-18T19:42:12.407Z,7.42
2022-09-18T19:44:58.070Z,7.37
2022-09-18T19:47:26.706Z,7.42
2022-09-18T19:49:57.557Z,7.46
2022-09-18T19:52:30.852Z,7.43
2022-09-18T19:55:00.201Z,7.43
2022-09-18T19:57:30.718Z,7.40
2022-09-18T20:00:01.771Z,7.39
2022-09-18T20:02:41.284Z,7.36
2022-09-18T20:05:10.997Z,7.35
2022-09-18T20:07:40.487Z,7.45
2022-09-18T20:10:12.449Z,7.50
2022-09-18T20:12:42.756Z,7.52
2022-09-18T20:15:12.234Z,7.48
2022-09-18T20:17:40.968Z,7.53
2022-09-18T20:20:15.666Z,7.56
2022-09-18T20:22:45.114Z,7.58
2022-09-18T20:25:13.922Z,7.58
2022-09-18T20:27:43.089Z,7.67
2022-09-18T20:30:16.134Z,7.73
2022-09-18T20:32:44.794Z,7.75
2022-09-18T20:35:13.515Z,7.72
2022-09-18T20:37:42.170Z,7.70
2022-09-18T20:40:13.106Z,7.73
2022-09-18T20:42:41.854Z,7.73
2022-09-18T20:45:10.656Z,7.67
2022-09-18T20:47:39.411Z,7.67
2022-09-18T20:50:12.200Z,7.69
2022-09-18T20:52:43.607Z,7.70
2022-09-18T20:55:14.706Z,7.65
2022-09-18T20:57:47.020Z,7.62
2022-09-18T21:00:18.242Z,7.54
2022-09-18T21:02:52.453Z,7.53
2022-09-18T21:05:21.345Z,7.50
2022-09-18T21:07:54.847Z,7.49
2022-09-18T21:10:23.836Z,7.43
2022-09-18T21:12:53.281Z,7.36
2022-09-18T21:15:22.017Z,7.30
2022-09-18T21:17:51.856Z,7.14
2022-09-18T21:20:21.109Z,7.07
2022-09-18T21:23:08.390Z,7.01
2022-09-18T21:25:37.294Z,6.96
2022-09-18T21:28:06.597Z,6.94
2022-09-18T21:30:35.214Z,6.91
2022-09-18T21:33:03.943Z,6.90
2022-09-18T21:35:32.551Z,6.77
2022-09-18T21:38:01.245Z,6.68
2022-09-18T21:40:29.984Z,6.60
2022-09-18T21:42:59.687Z,6.69
2022-09-18T21:45:31.557Z,6.67
2022-09-18T21:48:00.235Z,6.57
2022-09-18T21:50:29.047Z,6.54
2022-09-18T21:52:57.719Z,6.52
2022-09-18T21:55:26.476Z,6.54
2022-09-18T21:57:56.279Z,6.58
2022-09-18T22:00:26.434Z,6.69
2022-09-18T22:02:55.499Z,6.68
2022-09-18T22:05:24.317Z,6.71
2022-09-18T22:07:55.926Z,6.57
2022-09-18T22:10:25.119Z,6.54
2022-09-18T22:12:55.537Z,6.45
2022-09-18T22:15:24.208Z,6.37
2022-09-18T22:17:53.021Z,6.39
2022-09-18T22:20:21.828Z,6.39
2022-09-18T22:22:50.522Z,6.48
2022-09-18T22:25:19.198Z,6.57
2022-09-18T22:27:47.811Z,6.58
2022-09-18T22:30:16.595Z,6.54
2022-09-18T22:32:45.222Z,6.58
2022-09-18T22:35:14.415Z,6.64
2022-09-18T22:37:43.156Z,6.66
2022-09-18T22:40:12.086Z,6.77
2022-09-18T22:42:41.031Z,6.89
2022-09-18T22:45:10.368Z,6.95
2022-09-18T22:47:39.067Z,6.96
2022-09-18T22:50:08.147Z,6.92
2022-09-18T22:52:37.233Z,6.92
2022-09-18T22:55:06.141Z,7.00
2022-09-18T22:57:34.936Z,7.14
2022-09-18T23:00:04.987Z,7.23
2022-09-18T23:02:34.836Z,7.30
2022-09-18T23:05:03.810Z,7.26
2022-09-18T23:07:32.518Z,7.19
2022-09-18T23:10:01.169Z,7.18
2022-09-18T23:12:31.029Z,7.24
2022-09-18T23:14:59.714Z,7.34
2022-09-18T23:17:28.396Z,7.43
2022-09-18T23:19:57.090Z,7.51
2022-09-18T23:22:25.907Z,7.57
2022-09-18T23:24:54.575Z,7.56
2022-09-18T23:27:23.184Z,7.58
2022-09-18T23:29:51.899Z,7.59
2022-09-18T23:32:20.571Z,7.69
2022-09-18T23:34:51.094Z,7.75
2022-09-18T23:37:19.793Z,7.77
2022-09-18T23:39:48.485Z,7.85
2022-09-18T23:42:17.203Z,7.88
2022-09-18T23:44:46.002Z,7.91
2022-09-18T23:47:14.715Z,8.03
2022-09-18T23:49:43.374Z,8.16
2022-09-18T23:52:12.400Z,8.20
2022-09-18T23:54:41.205Z,8.32
2022-09-18T23:57:09.833Z,8.47
2022-09-18T23:59:38.632Z,8.55
